sensor_id;sensor_type;location;lat;lon;timestamp;temperature;humidity
17795;DHT22;9021;50.882;4.326;2022-09-09T00:03:57;17.50;99.90
17795;DHT22;9021;50.882;4.326;2022-09-09T00:06:27;17.40;99.90
17795;DHT22;9021;50.882;4.326;2022-09-09T00:09:00;17.30;99.90
17795;DHT22;9021;50.882;4.326;2022-09-09T00:17:09;17.60;99.90
17795;DHT22;9021;50.882;4.326;2022-09-09T00:19:53;17.50;99.90
17795;DHT22;9021;50.882;4.326;2022-09-09T00:22:26;17.50;99.90
17795;DHT22;9021;50.882;4.326;2022-09-09T00:24:54;17.50;99.90
17795;DHT22;9021;50.882;4.326;2022-09-09T00:27:43;17.40;99.90
17795;DHT22;9021;50.882;4.326;2022-09-09T00:30:31;17.40;99.90
17795;DHT22;9021;50.882;4.326;2022-09-09T00:33:02;17.40;99.90
17795;DHT22;9021;50.882;4.326;2022-09-09T00:35:38;17.30;99.90
17795;DHT22;9021;50.882;4.326;2022-09-09T00:38:15;17.40;99.90
17795;DHT22;9021;50.882;4.326;2022-09-09T00:43:37;17.30;99.90
17795;DHT22;9021;50.882;4.326;2022-09-09T00:54:38;17.30;99.90
17795;DHT22;9021;50.882;4.326;2022-09-09T00:57:27;17.00;99.90
17795;DHT22;9021;50.882;4.326;2022-09-09T01:00:16;17.10;99.90
17795;DHT22;9021;50.882;4.326;2022-09-09T01:03:13;17.20;99.90
17795;DHT22;9021;50.882;4.326;2022-09-09T01:06:31;17.30;99.90
17795;DHT22;9021;50.882;4.326;2022-09-09T01:14:20;17.10;99.90
17795;DHT22;9021;50.882;4.326;2022-09-09T01:16:52;17.20;99.90
17795;DHT22;9021;50.882;4.326;2022-09-09T01:19:45;17.20;99.90
17795;DHT22;9021;50.882;4.326;2022-09-09T01:22:26;17.30;99.90
17795;DHT22;9021;50.882;4.326;2022-09-09T01:27:46;17.30;99.90
17795;DHT22;9021;50.882;4.326;2022-09-09T01:30:16;17.40;99.90
17795;DHT22;9021;50.882;4.326;2022-09-09T01:32:42;17.30;99.90
17795;DHT22;9021;50.882;4.326;2022-09-09T01:35:20;17.20;99.90
17795;DHT22;9021;50.882;4.326;2022-09-09T01:37:47;17.20;99.90
17795;DHT22;9021;50.882;4.326;2022-09-09T01:40:13;17.20;99.90
17795;DHT22;9021;50.882;4.326;2022-09-09T01:42:39;17.20;99.90
17795;DHT22;9021;50.882;4.326;2022-09-09T01:45:05;17.10;99.90
17795;DHT22;9021;50.882;4.326;2022-09-09T01:47:31;17.10;99.90
17795;DHT22;9021;50.882;4.326;2022-09-09T01:49:56;17.10;99.90
17795;DHT22;9021;50.882;4.326;2022-09-09T01:52:22;17.00;99.90
17795;DHT22;9021;50.882;4.326;2022-09-09T01:54:48;17.20;99.90
17795;DHT22;9021;50.882;4.326;2022-09-09T01:59:48;17.20;99.90
17795;DHT22;9021;50.882;4.326;2022-09-09T02:02:19;17.20;99.90
17795;DHT22;9021;50.882;4.326;2022-09-09T02:04:48;17.20;99.90
17795;DHT22;9021;50.882;4.326;2022-09-09T02:12:47;16.90;99.90
17795;DHT22;9021;50.882;4.326;2022-09-09T02:15:26;17.00;99.90
17795;DHT22;9021;50.882;4.326;2022-09-09T02:17:57;17.00;99.90
17795;DHT22;9021;50.882;4.326;2022-09-09T02:20:24;16.90;99.90
17795;DHT22;9021;50.882;4.326;2022-09-09T02:22:53;16.80;99.90
17795;DHT22;9021;50.882;4.326;2022-09-09T02:25:22;16.90;99.90
17795;DHT22;9021;50.882;4.326;2022-09-09T02:27:50;17.00;99.90
17795;DHT22;9021;50.882;4.326;2022-09-09T02:30:18;17.00;99.90
17795;DHT22;9021;50.882;4.326;2022-09-09T02:32:44;16.90;99.90
17795;DHT22;9021;50.882;4.326;2022-09-09T02:35:19;16.90;99.90
17795;DHT22;9021;50.882;4.326;2022-09-09T02:37:46;16.90;99.90
17795;DHT22;9021;50.882;4.326;2022-09-09T02:40:14;17.00;99.90
17795;DHT22;9021;50.882;4.326;2022-09-09T02:42:42;17.00;99.90
17795;DHT22;9021;50.882;4.326;2022-09-09T02:45:10;17.00;99.90
17795;DHT22;9021;50.882;4.326;2022-09-09T02:47:47;16.90;99.90
17795;DHT22;9021;50.882;4.326;2022-09-09T02:50:28;17.00;99.90
17795;DHT22;9021;50.882;4.326;2022-09-09T02:56:00;17.00;99.90
17795;DHT22;9021;50.882;4.326;2022-09-09T02:58:29;17.10;99.90
17795;DHT22;9021;50.882;4.326;2022-09-09T03:00:55;17.20;99.90
17795;DHT22;9021;50.882;4.326;2022-09-09T03:03:22;17.10;99.90
17795;DHT22;9021;50.882;4.326;2022-09-09T03:05:49;17.10;99.90
17795;DHT22;9021;50.882;4.326;2022-09-09T03:08:15;17.20;99.90
17795;DHT22;9021;50.882;4.326;2022-09-09T03:10:41;17.10;99.90
17795;DHT22;9021;50.882;4.326;2022-09-09T03:13:06;17.00;99.90
17795;DHT22;9021;50.882;4.326;2022-09-09T03:15:33;17.00;99.90
17795;DHT22;9021;50.882;4.326;2022-09-09T03:17:59;17.00;99.90
17795;DHT22;9021;50.882;4.326;2022-09-09T03:20:27;17.00;99.90
17795;DHT22;9021;50.882;4.326;2022-09-09T03:22:53;17.10;99.90
17795;DHT22;9021;50.882;4.326;2022-09-09T03:25:20;17.10;99.90
17795;DHT22;9021;50.882;4.326;2022-09-09T03:27:46;17.10;99.90
17795;DHT22;9021;50.882;4.326;2022-09-09T03:30:11;17.10;99.90
17795;DHT22;9021;50.882;4.326;2022-09-09T03:32:37;17.00;99.90
17795;DHT22;9021;50.882;4.326;2022-09-09T03:35:03;17.00;99.90
17795;DHT22;9021;50.882;4.326;2022-09-09T03:37:29;17.00;99.90
17795;DHT22;9021;50.882;4.326;2022-09-09T03:39:54;17.10;99.90
17795;DHT22;9021;50.882;4.326;2022-09-09T03:42:20;17.10;99.90
17795;DHT22;9021;50.882;4.326;2022-09-09T03:44:48;17.00;99.90
17795;DHT22;9021;50.882;4.326;2022-09-09T03:47:20;17.00;99.90
17795;DHT22;9021;50.882;4.326;2022-09-09T03:49:47;17.00;99.90
17795;DHT22;9021;50.882;4.326;2022-09-09T03:52:14;16.90;99.90
17795;DHT22;9021;50.882;4.326;2022-09-09T03:54:40;17.00;99.90
17795;DHT22;9021;50.882;4.326;2022-09-09T03:57:10;16.90;99.90
17795;DHT22;9021;50.882;4.326;2022-09-09T03:59:36;17.10;99.90
17795;DHT22;9021;50.882;4.326;2022-09-09T04:02:02;17.10;99.90
17795;DHT22;9021;50.882;4.326;2022-09-09T04:04:28;17.20;99.90
17795;DHT22;9021;50.882;4.326;2022-09-09T04:06:54;17.20;99.90
17795;DHT22;9021;50.882;4.326;2022-09-09T04:09:20;17.10;99.90
17795;DHT22;9021;50.882;4.326;2022-09-09T04:11:45;17.20;99.90
17795;DHT22;9021;50.882;4.326;2022-09-09T04:14:11;17.30;99.90
17795;DHT22;9021;50.882;4.326;2022-09-09T04:16:38;17.20;99.90
17795;DHT22;9021;50.882;4.326;2022-09-09T04:19:04;17.30;99.90
17795;DHT22;9021;50.882;4.326;2022-09-09T04:21:30;17.10;99.90
17795;DHT22;9021;50.882;4.326;2022-09-09T04:23:56;17.10;99.90
17795;DHT22;9021;50.882;4.326;2022-09-09T04:26:22;17.10;99.90
17795;DHT22;9021;50.882;4.326;2022-09-09T04:28:48;17.20;99.90
17795;DHT22;9021;50.882;4.326;2022-09-09T04:31:19;17.20;99.90
17795;DHT22;9021;50.882;4.326;2022-09-09T04:33:46;17.10;99.90
17795;DHT22;9021;50.882;4.326;2022-09-09T04:36:12;17.00;99.90
17795;DHT22;9021;50.882;4.326;2022-09-09T04:38:38;17.00;99.90
17795;DHT22;9021;50.882;4.326;2022-09-09T04:41:04;17.10;99.90
17795;DHT22;9021;50.882;4.326;2022-09-09T04:43:30;17.00;99.90
17795;DHT22;9021;50.882;4.326;2022-09-09T04:45:56;17.00;99.90
17795;DHT22;9021;50.882;4.326;2022-09-09T04:48:22;17.00;99.90
17795;DHT22;9021;50.882;4.326;2022-09-09T04:51:14;17.00;99.90
17795;DHT22;9021;50.882;4.326;2022-09-09T04:53:40;17.00;99.90
17795;DHT22;9021;50.882;4.326;2022-09-09T04:56:08;17.00;99.90
17795;DHT22;9021;50.882;4.326;2022-09-09T04:58:35;17.00;99.90
17795;DHT22;9021;50.882;4.326;2022-09-09T05:03:34;17.00;99.90
17795;DHT22;9021;50.882;4.326;2022-09-09T05:06:05;17.00;99.90
17795;DHT22;9021;50.882;4.326;2022-09-09T05:08:31;16.90;99.90
17795;DHT22;9021;50.882;4.326;2022-09-09T05:10:57;16.90;99.90
17795;DHT22;9021;50.882;4.326;2022-09-09T05:13:25;16.80;99.90
17795;DHT22;9021;50.882;4.326;2022-09-09T05:15:52;16.90;99.90
17795;DHT22;9021;50.882;4.326;2022-09-09T05:18:18;17.00;99.90
17795;DHT22;9021;50.882;4.326;2022-09-09T05:20:44;17.00;99.90
17795;DHT22;9021;50.882;4.326;2022-09-09T05:23:09;17.00;99.90
17795;DHT22;9021;50.882;4.326;2022-09-09T05:25:38;17.00;99.90
17795;DHT22;9021;50.882;4.326;2022-09-09T05:28:05;16.90;99.90
17795;DHT22;9021;50.882;4.326;2022-09-09T05:30:32;17.00;99.90
17795;DHT22;9021;50.882;4.326;2022-09-09T05:32:59;17.00;99.90
17795;DHT22;9021;50.882;4.326;2022-09-09T05:35:24;17.00;99.90
17795;DHT22;9021;50.882;4.326;2022-09-09T05:37:50;17.00;99.90
17795;DHT22;9021;50.882;4.326;2022-09-09T05:40:15;17.00;99.90
17795;DHT22;9021;50.882;4.326;2022-09-09T05:42:41;17.10;99.90
17795;DHT22;9021;50.882;4.326;2022-09-09T05:45:08;17.10;99.90
17795;DHT22;9021;50.882;4.326;2022-09-09T05:47:34;17.20;99.90
17795;DHT22;9021;50.882;4.326;2022-09-09T05:50:01;17.10;99.90
17795;DHT22;9021;50.882;4.326;2022-09-09T05:52:26;17.10;99.90
17795;DHT22;9021;50.882;4.326;2022-09-09T05:54:52;17.20;99.90
17795;DHT22;9021;50.882;4.326;2022-09-09T05:57:20;17.10;99.90
17795;DHT22;9021;50.882;4.326;2022-09-09T05:59:46;17.20;99.90
17795;DHT22;9021;50.882;4.326;2022-09-09T06:02:11;17.10;99.90
17795;DHT22;9021;50.882;4.326;2022-09-09T06:04:38;17.00;99.90
17795;DHT22;9021;50.882;4.326;2022-09-09T06:07:04;17.10;99.90
17795;DHT22;9021;50.882;4.326;2022-09-09T06:09:30;17.20;99.90
17795;DHT22;9021;50.882;4.326;2022-09-09T06:11:56;17.30;99.90
17795;DHT22;9021;50.882;4.326;2022-09-09T06:14:23;17.30;99.90
17795;DHT22;9021;50.882;4.326;2022-09-09T06:16:50;17.40;99.90
17795;DHT22;9021;50.882;4.326;2022-09-09T06:19:16;17.50;99.90
17795;DHT22;9021;50.882;4.326;2022-09-09T06:21:42;17.50;99.90
17795;DHT22;9021;50.882;4.326;2022-09-09T06:24:10;17.60;99.90
17795;DHT22;9021;50.882;4.326;2022-09-09T06:26:38;17.50;99.90
17795;DHT22;9021;50.882;4.326;2022-09-09T06:29:07;17.50;99.90
17795;DHT22;9021;50.882;4.326;2022-09-09T06:31:34;17.60;99.90
17795;DHT22;9021;50.882;4.326;2022-09-09T06:34:01;17.60;99.90
17795;DHT22;9021;50.882;4.326;2022-09-09T06:36:29;17.60;99.90
17795;DHT22;9021;50.882;4.326;2022-09-09T06:38:56;17.80;99.90
17795;DHT22;9021;50.882;4.326;2022-09-09T06:41:23;17.70;99.90
17795;DHT22;9021;50.882;4.326;2022-09-09T06:43:49;17.70;99.90
17795;DHT22;9021;50.882;4.326;2022-09-09T06:46:17;17.60;99.90
17795;DHT22;9021;50.882;4.326;2022-09-09T06:48:44;17.60;99.90
17795;DHT22;9021;50.882;4.326;2022-09-09T06:51:15;17.70;99.90
17795;DHT22;9021;50.882;4.326;2022-09-09T06:53:43;17.70;99.90
17795;DHT22;9021;50.882;4.326;2022-09-09T06:58:41;17.60;99.90
17795;DHT22;9021;50.882;4.326;2022-09-09T07:01:10;17.60;99.90
17795;DHT22;9021;50.882;4.326;2022-09-09T07:03:38;17.70;99.90
17795;DHT22;9021;50.882;4.326;2022-09-09T07:06:04;17.70;99.90
17795;DHT22;9021;50.882;4.326;2022-09-09T07:08:30;17.80;99.90
17795;DHT22;9021;50.882;4.326;2022-09-09T07:11:04;17.90;99.90
17795;DHT22;9021;50.882;4.326;2022-09-09T07:13:31;17.90;99.90
17795;DHT22;9021;50.882;4.326;2022-09-09T07:16:07;18.00;99.90
17795;DHT22;9021;50.882;4.326;2022-09-09T07:18:33;18.00;99.90
17795;DHT22;9021;50.882;4.326;2022-09-09T07:21:00;17.90;99.90
17795;DHT22;9021;50.882;4.326;2022-09-09T07:23:26;17.80;99.90
17795;DHT22;9021;50.882;4.326;2022-09-09T07:25:52;17.90;99.90
17795;DHT22;9021;50.882;4.326;2022-09-09T07:28:19;18.10;99.90
17795;DHT22;9021;50.882;4.326;2022-09-09T07:30:56;18.20;99.90
17795;DHT22;9021;50.882;4.326;2022-09-09T07:33:22;18.20;99.90
17795;DHT22;9021;50.882;4.326;2022-09-09T07:35:48;18.20;99.90
17795;DHT22;9021;50.882;4.326;2022-09-09T07:38:14;18.20;99.90
17795;DHT22;9021;50.882;4.326;2022-09-09T07:40:41;18.20;99.90
17795;DHT22;9021;50.882;4.326;2022-09-09T07:43:06;18.10;99.90
17795;DHT22;9021;50.882;4.326;2022-09-09T07:45:33;17.90;99.90
17795;DHT22;9021;50.882;4.326;2022-09-09T07:48:00;18.00;99.90
17795;DHT22;9021;50.882;4.326;2022-09-09T07:50:25;18.00;99.90
17795;DHT22;9021;50.882;4.326;2022-09-09T07:52:52;18.00;99.90
17795;DHT22;9021;50.882;4.326;2022-09-09T07:55:19;17.90;99.90
17795;DHT22;9021;50.882;4.326;2022-09-09T07:57:45;18.10;99.90
17795;DHT22;9021;50.882;4.326;2022-09-09T08:00:11;18.20;99.90
17795;DHT22;9021;50.882;4.326;2022-09-09T08:02:37;18.40;99.90
17795;DHT22;9021;50.882;4.326;2022-09-09T08:05:02;18.50;99.90
17795;DHT22;9021;50.882;4.326;2022-09-09T08:07:28;18.80;99.90
17795;DHT22;9021;50.882;4.326;2022-09-09T08:09:54;18.90;99.90
17795;DHT22;9021;50.882;4.326;2022-09-09T08:12:21;19.00;99.90
17795;DHT22;9021;50.882;4.326;2022-09-09T08:14:46;19.10;99.90
17795;DHT22;9021;50.882;4.326;2022-09-09T08:17:12;19.10;99.90
17795;DHT22;9021;50.882;4.326;2022-09-09T08:19:38;19.20;99.90
17795;DHT22;9021;50.882;4.326;2022-09-09T08:22:04;19.00;99.90
17795;DHT22;9021;50.882;4.326;2022-09-09T08:24:29;18.80;99.90
17795;DHT22;9021;50.882;4.326;2022-09-09T08:26:55;18.60;99.90
17795;DHT22;9021;50.882;4.326;2022-09-09T08:29:22;18.60;99.90
17795;DHT22;9021;50.882;4.326;2022-09-09T08:31:53;18.60;99.90
17795;DHT22;9021;50.882;4.326;2022-09-09T08:34:20;18.40;99.90
17795;DHT22;9021;50.882;4.326;2022-09-09T08:36:48;18.20;99.90
17795;DHT22;9021;50.882;4.326;2022-09-09T08:39:16;18.30;99.90
17795;DHT22;9021;50.882;4.326;2022-09-09T08:58:14;17.90;99.90
17795;DHT22;9021;50.882;4.326;2022-09-09T09:03:26;17.90;99.90
17795;DHT22;9021;50.882;4.326;2022-09-09T09:08:47;17.90;99.90
17795;DHT22;9021;50.882;4.326;2022-09-09T09:11:16;18.00;99.90
17795;DHT22;9021;50.882;4.326;2022-09-09T09:13:57;17.90;99.90
17795;DHT22;9021;50.882;4.326;2022-09-09T09:16:41;17.90;99.90
17795;DHT22;9021;50.882;4.326;2022-09-09T09:19:13;18.00;99.90
17795;DHT22;9021;50.882;4.326;2022-09-09T09:21:45;18.00;99.90
17795;DHT22;9021;50.882;4.326;2022-09-09T09:24:18;18.00;99.90
17795;DHT22;9021;50.882;4.326;2022-09-09T09:26:44;18.00;99.90
17795;DHT22;9021;50.882;4.326;2022-09-09T09:29:13;18.20;99.90
17795;DHT22;9021;50.882;4.326;2022-09-09T09:31:49;18.20;99.90
17795;DHT22;9021;50.882;4.326;2022-09-09T09:34:16;18.20;99.90
17795;DHT22;9021;50.882;4.326;2022-09-09T09:36:53;18.20;99.90
17795;DHT22;9021;50.882;4.326;2022-09-09T09:39:33;18.20;99.90
17795;DHT22;9021;50.882;4.326;2022-09-09T09:42:23;18.10;99.90
17795;DHT22;9021;50.882;4.326;2022-09-09T09:44:49;18.00;99.90
17795;DHT22;9021;50.882;4.326;2022-09-09T09:47:22;18.00;99.90
17795;DHT22;9021;50.882;4.326;2022-09-09T09:49:59;18.00;99.90
17795;DHT22;9021;50.882;4.326;2022-09-09T09:52:26;18.10;99.90
17795;DHT22;9021;50.882;4.326;2022-09-09T09:54:53;18.10;99.90
17795;DHT22;9021;50.882;4.326;2022-09-09T09:57:24;18.10;99.90
17795;DHT22;9021;50.882;4.326;2022-09-09T10:00:02;18.00;99.90
17795;DHT22;9021;50.882;4.326;2022-09-09T10:02:39;18.00;99.90
17795;DHT22;9021;50.882;4.326;2022-09-09T10:05:35;18.00;99.90
17795;DHT22;9021;50.882;4.326;2022-09-09T10:08:13;17.80;99.90
17795;DHT22;9021;50.882;4.326;2022-09-09T10:10:54;17.90;99.90
17795;DHT22;9021;50.882;4.326;2022-09-09T10:24:47;18.70;99.90
17795;DHT22;9021;50.882;4.326;2022-09-09T10:27:23;18.70;99.90
17795;DHT22;9021;50.882;4.326;2022-09-09T10:30:19;18.90;99.90
17795;DHT22;9021;50.882;4.326;2022-09-09T10:33:08;19.10;99.90
17795;DHT22;9021;50.882;4.326;2022-09-09T10:35:50;19.10;99.90
17795;DHT22;9021;50.882;4.326;2022-09-09T10:38:42;19.20;99.90
17795;DHT22;9021;50.882;4.326;2022-09-09T10:41:18;19.40;99.90
17795;DHT22;9021;50.882;4.326;2022-09-09T10:49:28;20.10;99.90
17795;DHT22;9021;50.882;4.326;2022-09-09T10:52:26;20.50;99.90
17795;DHT22;9021;50.882;4.326;2022-09-09T10:57:29;20.50;99.90
17795;DHT22;9021;50.882;4.326;2022-09-09T10:59:59;20.30;99.90
17795;DHT22;9021;50.882;4.326;2022-09-09T11:02:30;20.10;99.90
17795;DHT22;9021;50.882;4.326;2022-09-09T11:05:16;20.00;99.90
17795;DHT22;9021;50.882;4.326;2022-09-09T11:07:52;20.00;99.90
17795;DHT22;9021;50.882;4.326;2022-09-09T11:10:29;20.10;99.90
17795;DHT22;9021;50.882;4.326;2022-09-09T11:13:03;19.80;99.90
17795;DHT22;9021;50.882;4.326;2022-09-09T11:15:42;19.80;99.90
17795;DHT22;9021;50.882;4.326;2022-09-09T11:18:15;19.90;99.90
17795;DHT22;9021;50.882;4.326;2022-09-09T11:20:45;19.80;99.90
17795;DHT22;9021;50.882;4.326;2022-09-09T11:23:21;20.10;99.90
17795;DHT22;9021;50.882;4.326;2022-09-09T11:25:54;20.10;99.90
17795;DHT22;9021;50.882;4.326;2022-09-09T11:37:10;20.10;99.90
17795;DHT22;9021;50.882;4.326;2022-09-09T11:42:35;19.70;99.90
17795;DHT22;9021;50.882;4.326;2022-09-09T11:45:19;19.70;99.90
17795;DHT22;9021;50.882;4.326;2022-09-09T11:48:00;19.70;99.90
17795;DHT22;9021;50.882;4.326;2022-09-09T11:53:16;19.80;99.90
17795;DHT22;9021;50.882;4.326;2022-09-09T11:55:42;19.80;99.90
17795;DHT22;9021;50.882;4.326;2022-09-09T12:00:42;19.70;99.90
17795;DHT22;9021;50.882;4.326;2022-09-09T12:03:32;19.80;99.90
17795;DHT22;9021;50.882;4.326;2022-09-09T12:06:08;19.80;99.90
17795;DHT22;9021;50.882;4.326;2022-09-09T12:08:35;19.70;99.90
17795;DHT22;9021;50.882;4.326;2022-09-09T12:11:02;19.60;99.90
17795;DHT22;9021;50.882;4.326;2022-09-09T12:13:30;19.70;99.90
17795;DHT22;9021;50.882;4.326;2022-09-09T12:15:57;19.60;99.90
17795;DHT22;9021;50.882;4.326;2022-09-09T12:18:38;19.50;99.90
17795;DHT22;9021;50.882;4.326;2022-09-09T12:21:24;19.50;99.90
17795;DHT22;9021;50.882;4.326;2022-09-09T12:24:00;19.50;99.90
17795;DHT22;9021;50.882;4.326;2022-09-09T12:26:45;19.50;99.90
17795;DHT22;9021;50.882;4.326;2022-09-09T12:29:26;19.60;99.90
17795;DHT22;9021;50.882;4.326;2022-09-09T12:32:15;19.70;99.90
17795;DHT22;9021;50.882;4.326;2022-09-09T12:34:52;19.70;99.90
17795;DHT22;9021;50.882;4.326;2022-09-09T12:37:41;19.70;99.90
17795;DHT22;9021;50.882;4.326;2022-09-09T12:40:53;19.70;99.90
17795;DHT22;9021;50.882;4.326;2022-09-09T12:43:21;19.90;99.90
17795;DHT22;9021;50.882;4.326;2022-09-09T12:45:49;20.00;99.90
17795;DHT22;9021;50.882;4.326;2022-09-09T12:48:18;20.10;99.90
17795;DHT22;9021;50.882;4.326;2022-09-09T12:50:49;20.20;99.90
17795;DHT22;9021;50.882;4.326;2022-09-09T12:55:54;20.40;99.90
17795;DHT22;9021;50.882;4.326;2022-09-09T12:58:21;20.60;99.90
17795;DHT22;9021;50.882;4.326;2022-09-09T13:00:52;20.80;99.90
17795;DHT22;9021;50.882;4.326;2022-09-09T13:03:19;21.00;99.90
17795;DHT22;9021;50.882;4.326;2022-09-09T13:05:46;20.90;99.90
17795;DHT22;9021;50.882;4.326;2022-09-09T13:08:13;20.90;99.90
17795;DHT22;9021;50.882;4.326;2022-09-09T13:11:01;21.00;99.90
17795;DHT22;9021;50.882;4.326;2022-09-09T13:13:36;20.90;99.90
17795;DHT22;9021;50.882;4.326;2022-09-09T13:16:05;21.10;99.90
17795;DHT22;9021;50.882;4.326;2022-09-09T13:18:34;21.10;99.90
17795;DHT22;9021;50.882;4.326;2022-09-09T13:21:04;21.20;99.90
17795;DHT22;9021;50.882;4.326;2022-09-09T13:23:34;21.20;99.90
17795;DHT22;9021;50.882;4.326;2022-09-09T13:26:03;21.10;99.90
17795;DHT22;9021;50.882;4.326;2022-09-09T13:28:30;21.10;99.90
17795;DHT22;9021;50.882;4.326;2022-09-09T13:31:04;21.30;99.90
17795;DHT22;9021;50.882;4.326;2022-09-09T13:33:38;20.90;99.90
17795;DHT22;9021;50.882;4.326;2022-09-09T13:36:07;21.10;99.90
17795;DHT22;9021;50.882;4.326;2022-09-09T13:38:40;21.50;99.90
17795;DHT22;9021;50.882;4.326;2022-09-09T13:41:41;21.80;99.90
17795;DHT22;9021;50.882;4.326;2022-09-09T13:44:20;21.50;99.90
17795;DHT22;9021;50.882;4.326;2022-09-09T13:46:46;21.50;99.90
17795;DHT22;9021;50.882;4.326;2022-09-09T13:51:45;22.20;99.90
17795;DHT22;9021;50.882;4.326;2022-09-09T13:54:13;22.30;99.90
17795;DHT22;9021;50.882;4.326;2022-09-09T13:56:40;22.20;99.90
17795;DHT22;9021;50.882;4.326;2022-09-09T13:59:10;22.10;99.90
17795;DHT22;9021;50.882;4.326;2022-09-09T14:01:36;21.80;99.90
17795;DHT22;9021;50.882;4.326;2022-09-09T14:04:03;21.90;99.90
17795;DHT22;9021;50.882;4.326;2022-09-09T14:06:29;22.00;99.90
17795;DHT22;9021;50.882;4.326;2022-09-09T14:08:55;21.90;99.90
17795;DHT22;9021;50.882;4.326;2022-09-09T14:11:21;21.90;99.90
17795;DHT22;9021;50.882;4.326;2022-09-09T14:13:48;22.00;99.90
17795;DHT22;9021;50.882;4.326;2022-09-09T14:16:18;21.90;99.90
17795;DHT22;9021;50.882;4.326;2022-09-09T14:18:45;22.00;99.90
17795;DHT22;9021;50.882;4.326;2022-09-09T14:21:11;21.90;99.90
17795;DHT22;9021;50.882;4.326;2022-09-09T14:23:37;22.00;99.90
17795;DHT22;9021;50.882;4.326;2022-09-09T14:26:04;22.00;99.90
17795;DHT22;9021;50.882;4.326;2022-09-09T14:28:30;22.10;99.90
17795;DHT22;9021;50.882;4.326;2022-09-09T14:30:59;21.90;99.90
17795;DHT22;9021;50.882;4.326;2022-09-09T14:33:25;21.90;99.90
17795;DHT22;9021;50.882;4.326;2022-09-09T14:35:59;22.10;99.90
17795;DHT22;9021;50.882;4.326;2022-09-09T14:38:25;22.30;99.90
17795;DHT22;9021;50.882;4.326;2022-09-09T14:40:51;22.10;99.90
17795;DHT22;9021;50.882;4.326;2022-09-09T14:43:16;22.20;99.90
17795;DHT22;9021;50.882;4.326;2022-09-09T14:45:42;22.10;99.90
17795;DHT22;9021;50.882;4.326;2022-09-09T14:48:08;22.10;99.90
17795;DHT22;9021;50.882;4.326;2022-09-09T14:50:34;22.10;99.90
17795;DHT22;9021;50.882;4.326;2022-09-09T14:53:02;22.30;99.90
17795;DHT22;9021;50.882;4.326;2022-09-09T14:55:27;22.50;99.90
17795;DHT22;9021;50.882;4.326;2022-09-09T14:57:54;22.60;99.90
17795;DHT22;9021;50.882;4.326;2022-09-09T15:00:20;22.60;99.90
17795;DHT22;9021;50.882;4.326;2022-09-09T15:02:45;22.70;99.90
17795;DHT22;9021;50.882;4.326;2022-09-09T15:05:11;22.70;99.90
17795;DHT22;9021;50.882;4.326;2022-09-09T15:07:37;22.40;99.90
17795;DHT22;9021;50.882;4.326;2022-09-09T15:10:03;22.40;99.90
17795;DHT22;9021;50.882;4.326;2022-09-09T15:12:29;22.40;99.90
17795;DHT22;9021;50.882;4.326;2022-09-09T15:14:55;22.20;99.90
17795;DHT22;9021;50.882;4.326;2022-09-09T15:17:21;22.00;99.90
17795;DHT22;9021;50.882;4.326;2022-09-09T15:19:47;22.00;99.90
17795;DHT22;9021;50.882;4.326;2022-09-09T15:22:12;22.00;99.90
17795;DHT22;9021;50.882;4.326;2022-09-09T15:24:38;21.90;99.90
17795;DHT22;9021;50.882;4.326;2022-09-09T15:27:04;21.80;99.90
17795;DHT22;9021;50.882;4.326;2022-09-09T15:29:30;21.70;99.90
17795;DHT22;9021;50.882;4.326;2022-09-09T15:31:55;21.70;99.90
17795;DHT22;9021;50.882;4.326;2022-09-09T15:34:21;21.60;99.90
17795;DHT22;9021;50.882;4.326;2022-09-09T15:36:47;21.50;99.90
17795;DHT22;9021;50.882;4.326;2022-09-09T15:39:15;21.50;99.90
17795;DHT22;9021;50.882;4.326;2022-09-09T15:41:42;21.50;99.90
17795;DHT22;9021;50.882;4.326;2022-09-09T15:44:09;21.50;99.90
17795;DHT22;9021;50.882;4.326;2022-09-09T15:46:40;21.60;99.90
17795;DHT22;9021;50.882;4.326;2022-09-09T15:49:12;21.50;99.90
17795;DHT22;9021;50.882;4.326;2022-09-09T15:51:41;21.40;99.90
17795;DHT22;9021;50.882;4.326;2022-09-09T15:54:11;21.20;99.90
17795;DHT22;9021;50.882;4.326;2022-09-09T15:56:37;21.20;99.90
17795;DHT22;9021;50.882;4.326;2022-09-09T15:59:03;21.20;99.90
17795;DHT22;9021;50.882;4.326;2022-09-09T16:01:29;21.30;99.90
17795;DHT22;9021;50.882;4.326;2022-09-09T16:03:57;21.20;99.90
17795;DHT22;9021;50.882;4.326;2022-09-09T16:06:24;21.10;99.90
17795;DHT22;9021;50.882;4.326;2022-09-09T16:08:51;21.10;99.90
17795;DHT22;9021;50.882;4.326;2022-09-09T16:11:25;21.10;99.90
17795;DHT22;9021;50.882;4.326;2022-09-09T16:13:53;21.20;99.90
17795;DHT22;9021;50.882;4.326;2022-09-09T16:16:22;21.30;99.90
17795;DHT22;9021;50.882;4.326;2022-09-09T16:18:54;21.20;99.90
17795;DHT22;9021;50.882;4.326;2022-09-09T16:21:22;21.20;99.90
17795;DHT22;9021;50.882;4.326;2022-09-09T16:23:50;21.30;99.90
17795;DHT22;9021;50.882;4.326;2022-09-09T16:26:17;21.20;99.90
17795;DHT22;9021;50.882;4.326;2022-09-09T16:28:43;21.00;99.90
17795;DHT22;9021;50.882;4.326;2022-09-09T16:31:10;20.70;99.90
17795;DHT22;9021;50.882;4.326;2022-09-09T16:33:37;20.70;99.90
17795;DHT22;9021;50.882;4.326;2022-09-09T16:36:14;20.70;99.90
17795;DHT22;9021;50.882;4.326;2022-09-09T16:38:41;20.60;99.90
17795;DHT22;9021;50.882;4.326;2022-09-09T16:41:09;20.60;99.90
17795;DHT22;9021;50.882;4.326;2022-09-09T16:43:36;20.70;99.90
17795;DHT22;9021;50.882;4.326;2022-09-09T16:46:03;20.80;99.90
17795;DHT22;9021;50.882;4.326;2022-09-09T16:48:33;20.90;99.90
17795;DHT22;9021;50.882;4.326;2022-09-09T16:51:05;21.00;99.90
17795;DHT22;9021;50.882;4.326;2022-09-09T16:53:32;21.10;99.90
17795;DHT22;9021;50.882;4.326;2022-09-09T16:55:58;21.20;99.90
17795;DHT22;9021;50.882;4.326;2022-09-09T16:58:23;21.40;99.90
17795;DHT22;9021;50.882;4.326;2022-09-09T17:00:49;21.40;99.90
17795;DHT22;9021;50.882;4.326;2022-09-09T17:03:16;21.50;99.90
17795;DHT22;9021;50.882;4.326;2022-09-09T17:05:42;21.50;99.90
17795;DHT22;9021;50.882;4.326;2022-09-09T17:08:08;21.40;99.90
17795;DHT22;9021;50.882;4.326;2022-09-09T17:10:39;21.40;99.90
17795;DHT22;9021;50.882;4.326;2022-09-09T17:13:05;21.40;99.90
17795;DHT22;9021;50.882;4.326;2022-09-09T17:15:30;21.30;99.90
17795;DHT22;9021;50.882;4.326;2022-09-09T17:17:56;21.10;99.90
17795;DHT22;9021;50.882;4.326;2022-09-09T17:20:21;21.10;99.90
17795;DHT22;9021;50.882;4.326;2022-09-09T17:22:47;20.80;99.90
17795;DHT22;9021;50.882;4.326;2022-09-09T17:25:14;20.80;99.90
17795;DHT22;9021;50.882;4.326;2022-09-09T17:27:40;20.70;99.90
17795;DHT22;9021;50.882;4.326;2022-09-09T17:30:06;20.60;99.90
17795;DHT22;9021;50.882;4.326;2022-09-09T17:32:31;20.60;99.90
17795;DHT22;9021;50.882;4.326;2022-09-09T17:34:57;20.40;99.90
17795;DHT22;9021;50.882;4.326;2022-09-09T17:37:22;20.40;99.90
17795;DHT22;9021;50.882;4.326;2022-09-09T17:39:48;20.30;99.90
17795;DHT22;9021;50.882;4.326;2022-09-09T17:42:14;20.30;99.90
17795;DHT22;9021;50.882;4.326;2022-09-09T17:44:40;20.00;99.90
17795;DHT22;9021;50.882;4.326;2022-09-09T17:47:07;19.90;99.90
17795;DHT22;9021;50.882;4.326;2022-09-09T17:49:32;19.80;99.90